Flight Track Log - Related Links

Times and Time Zones

All times are in EDT time to prevent confusion due to time zone crossing. See the KAP720 flight status page for this flight to view local times or setup timezone preferences in your user account.

Time Position Orientation Groundspeed Altitude Reporting Facility
EDT Latitude Longitude Course Direction KTS MPH feet Rate Location/Type
Wed 07:13:27 AM 44.4794 -75.2419 68° East 154 177 4,600  Level Boston Center
Wed 07:14:27 AM 44.4508 -75.2203 152° Southeast 135 155 5,100 450 Climbing Boston Center
Wed 07:15:27 AM 44.4200 -75.1986 153° Southeast 129 148 5,500 200 Climbing Boston Center
Wed 07:16:27 AM 44.3853 -75.1736 153° Southeast 129 148 5,500 -50 Level Boston Center
Wed 07:17:00 AM 44.7792 -75.1146 68° East  Level FlightAware
Wed 07:17:27 AM 44.3528 -75.1375 142° Southeast 134 154 5,400  Level Boston Center
Wed 07:18:27 AM 44.3219 -75.1097 147° Southeast 139 160 5,500 50 Climbing Boston Center
Wed 07:19:27 AM 44.2956 -75.0856 147° Southeast 139 160 5,500  Level Boston Center
Wed 07:20:27 AM 44.2589 -75.0519 147° Southeast 139 160 5,500  Level Boston Center
Wed 07:21:27 AM 44.2219 -75.0242 152° Southeast 139 160 5,500  Level Boston Center
Wed 07:22:27 AM 44.1892 -74.9997 152° Southeast 139 160 5,500  Level Boston Center
Wed 07:23:27 AM 44.1564 -74.9722 149° Southeast 139 160 5,500 -50 Level Boston Center
Wed 07:24:27 AM 44.1236 -74.9419 146° Southeast 139 160 5,400 -50 Descending Boston Center
Wed 07:25:27 AM 44.0889 -74.9114 148° Southeast 139 160 5,400  Level Boston Center
Wed 07:26:27 AM 44.0561 -74.8842 149° Southeast 139 160 5,400  Level Boston Center
Wed 07:27:27 AM 44.0233 -74.8567 149° Southeast 139 160 5,400  Level Boston Center
Wed 07:28:27 AM 43.9906 -74.8267 147° Southeast 139 160 5,400  Level Boston Center
Wed 07:29:39 AM 43.9578 -74.8022 152° Southeast 139 160 5,400  Level Boston Center
Wed 07:30:39 AM 43.9211 -74.7692 147° Southeast 139 160 5,400 50 Level Boston Center
Wed 07:31:39 AM 43.8883 -74.7419 149° Southeast 139 160 5,500 50 Climbing Boston Center
Wed 07:32:39 AM 43.8556 -74.7119 147° Southeast 139 160 5,500  Level Boston Center
Wed 07:33:39 AM 43.8225 -74.6847 149° Southeast 139 160 5,500  Level Boston Center
Wed 07:34:39 AM 43.7878 -74.6575 150° Southeast 139 160 5,500  Level Boston Center
Wed 07:35:39 AM 43.7550 -74.6306 149° Southeast 139 160 5,500  Level Boston Center
Wed 07:36:51 AM 43.7222 -74.6006 147° Southeast 139 160 5,500  Level Boston Center
Wed 07:37:51 AM 43.6872 -74.5733 151° Southeast 139 160 5,500  Level Boston Center
Wed 07:38:51 AM 43.6544 -74.5436 147° Southeast 139 160 5,500 50 Level Boston Center
Wed 07:39:51 AM 43.6214 -74.5194 152° Southeast 139 160 5,600  Climbing Boston Center
Wed 07:40:51 AM 43.5886 -74.4897 147° Southeast 139 160 5,500 -50 Descending Boston Center
Wed 07:41:51 AM 43.5558 -74.4656 152° Southeast 139 160 5,500  Level Boston Center
Wed 07:42:51 AM 43.5250 -74.4389 148° Southeast 139 160 5,500  Level Boston Center
Wed 07:43:51 AM 43.4922 -74.4119 149° Southeast 139 160 5,500  Level Boston Center
Wed 07:44:51 AM 43.4592 -74.3850 149° Southeast 139 160 5,500 65 Level Boston Center
Wed 07:45:23 AM 43.4386 -74.3703 153° Southeast 139 160 5,600  Climbing Boston Center
Wed 07:45:51 AM 43.4244 -74.3525 138° Southeast 139 160 5,500 -68 Descending Boston Center
Wed 07:46:51 AM 43.3914 -74.3258 150° Southeast 139 160 5,500  Level Boston Center
Wed 07:47:51 AM 43.3564 -74.2961 148° Southeast 139 160 5,500  Level Boston Center
Wed 07:48:51 AM 43.3236 -74.2694 149° Southeast 139 160 5,500  Level Boston Center
Wed 07:49:51 AM 43.2906 -74.2428 150° Southeast 139 160 5,500  Level Boston Center
Wed 07:50:51 AM 43.2578 -74.2161 149° Southeast 139 160 5,500  Level Boston Center
Wed 07:51:51 AM 43.2269 -74.1897 148° Southeast 139 160 5,500  Level Boston Center
Wed 07:52:51 AM 43.1939 -74.1631 150° Southeast 139 160 5,500 50 Level Boston Center
Wed 07:53:51 AM 43.1589 -74.1364 151° Southeast 139 160 5,600 45 Climbing Boston Center
Wed 07:55:05 AM 43.1178 -74.1069 152° Southeast 139 160 5,600 -150 Level Boston Center
Wed 07:55:51 AM 43.0931 -74.0833 145° Southeast 139 160 5,300 -492 Descending Boston Center
Wed 07:56:06 AM 43.0847 -74.0803 165° South 139 160 5,100 -700 Descending Boston Center
Wed 07:56:51 AM 43.0558 -74.0542 147° Southeast 151 174 4,600 -700 Descending Boston Center
Wed 07:57:06 AM 43.0456 -74.0453 148° Southeast 168 193 4,400 -500 Descending Boston Center
Wed 07:57:51 AM 43.0167 -74.0189 146° Southeast 161 185 4,100 -393 Descending Boston Center
Wed 07:58:07 AM 43.0064 -74.0131 157° South 167 192 4,000 -400 Descending Boston Center
Wed 07:58:51 AM 42.9797 -73.9897 147° Southeast 161 185 3,700 -492 Descending Boston Center
Wed 07:59:08 AM 42.9672 -73.9836 160° South 157 181 3,500 -500 Descending Boston Center
Wed 07:59:51 AM 42.9469 -73.9519 131° Southeast 161 185 3,200 -455 Descending Boston Center
Wed 08:00:14 AM 42.9344 -73.9347 135° Southeast 155 178 3,000 -571 Descending Boston Center
Wed 08:01:15 AM 42.9039 -73.8856 130° Southeast 162 186 2,400 -347 Descending Boston Center
Wed 08:02:15 AM 42.8753 -73.8453 134° Southeast 151 174 2,300 -142 Descending Boston Center
Wed 08:03:22 AM 42.8381 -73.8189 153° Southeast 129 148 2,100 -516 Descending Boston Center
Wed 08:04:23 AM 42.8028 -73.8125 172° South 130 150 1,200 -744 Descending Boston Center
Wed 08:05:23 AM 42.7694 -73.8089 175° South 117 135 600 -600 Descending Boston Center
Wed 08:07:00 AM 42.7491 -73.8020 150° Southeast  Level Estimated
Wed 08:14:00 AM 42.7491 -73.8020 150° Southeast  Level Estimated
Wed 08:15:00 AM 42.7491 -73.8020 150° Southeast  Level Estimated
Wed 08:16:00 AM 42.7491 -73.8020 150° Southeast  Level Estimated
Wed 08:17:00 AM 42.7491 -73.8020 150° Southeast  Level Estimated

Login

Don't have an account? Register now (free) for customized features, flight alerts, and more!